This is the latest recevied weather packets stored in our database for station/object KB3AWQ. If no packets are shown the sender has not sent any weather packets the latest 1 day(s).
| Time | Temp. | Humidity | Pressure | Rain* | Wind** | Luminosity | Snow |
|---|---|---|---|---|---|---|---|
| 1778018967 | 24.44° C | 49% | 1007.2 hPa | 0 mm | 0.45 m/s, 237° | 29 W/m² | - |
| 1778018666 | 24.44° C | 49% | 1007.1 hPa | 0 mm | 0 m/s | 22 W/m² | - |
| 1778018366 | 24.44° C | 48% | 1007.1 hPa | 0 mm | 0.89 m/s, 236° | 34 W/m² | - |
| 1778018066 | 25° C | 48% | 1007.1 hPa | 0 mm | 0.45 m/s, 251° | 51 W/m² | - |
| 1778017766 | 25° C | 49% | 1007 hPa | 0 mm | 0.89 m/s, 188° | 74 W/m² | - |
| 1778017467 | 25° C | 50% | 1007 hPa | 0 mm | 0 m/s | 100 W/m² | - |
| 1778017167 | 25° C | 50% | 1006.9 hPa | 0 mm | 0.45 m/s, 289° | 152 W/m² | - |
| 1778016867 | 25° C | 49% | 1006.8 hPa | 0 mm | 0.45 m/s, 215° | 150 W/m² | - |
| 1778016566 | 25° C | 49% | 1006.6 hPa | 0 mm | 0 m/s | 110 W/m² | - |
| 1778016266 | 25° C | 48% | 1006.6 hPa | 0 mm | 0.45 m/s, 255° | 150 W/m² | - |
| 1778015966 | 25° C | 49% | 1006.5 hPa | 0 mm | 0 m/s | 159 W/m² | - |
| 1778015666 | 25° C | 50% | 1006.4 hPa | 0 mm | 0.45 m/s, 250° | 222 W/m² | - |
| 1778015367 | 24.44° C | 50% | 1006.4 hPa | 0 mm | 0.45 m/s, 227° | 173 W/m² | - |
| 1778015069 | 25° C | 51% | 1006.5 hPa | 0 mm | 0 m/s | 104 W/m² | - |
| 1778014766 | 25° C | 50% | 1006.5 hPa | 0 mm | 0.45 m/s, 212° | 109 W/m² | - |
| 1778014468 | 25° C | 49% | 1006.5 hPa | 0 mm | 0 m/s | 225 W/m² | - |
| 1778014167 | 25° C | 47% | 1006.5 hPa | 0 mm | 0.45 m/s, 256° | 244 W/m² | - |
| 1778013867 | 25° C | 47% | 1006.5 hPa | 0 mm | 0.45 m/s, 243° | 196 W/m² | - |
| 1778013566 | 25° C | 46% | 1006.5 hPa | 0 mm | 0.45 m/s, 220° | 144 W/m² | - |
| 1778013267 | 25° C | 46% | 1006.6 hPa | 0 mm | 0.45 m/s, 233° | 170 W/m² | - |
| 1778012967 | 25° C | 45% | 1006.6 hPa | 0 mm | 0.45 m/s, 235° | 146 W/m² | - |
| 1778012666 | 25.56° C | 45% | 1006.6 hPa | 0 mm | 0.89 m/s, 226° | 95 W/m² | - |
| 1778012367 | 25.56° C | 42% | 1006.5 hPa | 0 mm | 1.79 m/s, 245° | 136 W/m² | - |
| 1778012068 | 25.56° C | 43% | 1006.3 hPa | 0 mm | 1.34 m/s, 229° | 118 W/m² | - |
| 1778011768 | 25.56° C | 46% | 1006.2 hPa | 0 mm | 0.45 m/s, 219° | 232 W/m² | - |
* Rain latest hour (hover to see other rain measurements)
** Current wind speed in m/s (hover to see current wind gust speed)